KFTW

Fort Worth Meacham International Airport

Fort Worth, Texas, USA
METAR KFTW 212253Z 05009KT 8SM CLR 33/18 A3006 RMK AO2 SLP170 T03330183
Observed Flight Rules
Aug-21 @ 22:53 UTC (52 minutes ago) Visual Flight Rules
Wind Visibility Clouds
50° at 9 knots 8 miles
  • Clear skies
Temperatures Readings
Current 33°C / 91°F
Dewpoint 18°C / 64°F
Humidity 41%
Altimeter 30.06" Hg
Pressure 1017 hPa
Elevation 214
METAR KFTW 212253Z 05009KT 8SM CLR 33/18 A3006 RMK AO2 SLP170 T03330183
Observed Flight Rules
Aug-21 @ 22:53 UTC
(52 minutes ago)
VFR
Wind Visibility
50° at 9 knots 8 miles
Clouds
  • Clear skies
Temperature Dewpoint
33°C / 91°F 18°C / 64°F
Humidity Altimeter Pressure
41% 30.06" Hg 1017 hPa